Home > Products > Valid Products > TAF

000
FTUS45 KFGZ 162300
TAFPGA
TAF
KPGA 162326Z 1700/1724 03006KT P6SM FEW100 SCT250
     FM170600 VRB05KT P6SM SCT250
     FM171800 04006KT P6SM SCT250=



000
FTUS45 KFGZ 162300
TAFINW
TAF
KINW 162326Z 1700/1724 34010KT P6SM SCT140 BKN200
     FM170300 25008KT P6SM SCT250
     FM171200 12006KT P6SM FEW250
     FM172100 20008KT P6SM SCT250=



000
FTUS45 KFGZ 162300
TAFFLG
TAF
KFLG 162326Z 1700/1724 26011G20KT P6SM SCT120 BKN200
     FM170100 26007KT P6SM FEW250
     FM170300 VRB03KT P6SM FEW250
     FM171900 21010G18KT P6SM SCT250=



000
FTUS45 KFGZ 162100 AAA
TAFINW
TAF AMD
KINW 162100Z 1621/1718 33010KT P6SM SCT140 BKN200
     FM170300 25008KT P6SM SCT250
     FM171200 12006KT P6SM FEW250=



000
FTUS45 KFGZ 162000 AAA
TAFPGA
TAF AMD
KPGA 162057Z 1621/1718 01010G16KT P6SM BKN090 BKN150
     FM170000 33008KT P6SM SCT250
     FM170600 VRB05KT P6SM SCT250=



000
FTUS45 KFGZ 161700
TAFINW
TAF
KINW 161720Z 1618/1718 VRB06KT P6SM SCT250
     FM161900 29010KT P6SM BKN250
     FM162100 30012G24KT P6SM SCT140 BKN200
     FM170300 25008KT P6SM SCT250
     FM171200 12006KT P6SM FEW250=



000
FTUS45 KFGZ 161700
TAFFLG
TAF
KFLG 161720Z 1618/1718 27012G20KT P6SM SCT120 BKN200
     FM170100 26007KT P6SM FEW250
     FM170300 VRB03KT P6SM FEW250=



000
FTUS45 KFGZ 161700
TAFPGA
TAF
KPGA 161720Z 1618/1718 29006KT P6SM SCT100 BKN150
     FM161900 33010G18KT P6SM SCT100 BKN150
     FM170000 33008KT P6SM SCT250
     FM170600 VRB05KT P6SM SCT250=



000
FTUS45 KFGZ 161100
TAFPGA
TAF
KPGA 161120Z 1612/1712 VRB05KT P6SM SCT250
     FM161800 34010G18KT P6SM BKN110 BKN200
     FM170300 VRB04KT P6SM SCT250=



000
FTUS45 KFGZ 161100
TAFFLG
TAF
KFLG 161120Z 1612/1712 VRB05KT P6SM SKC
     FM161800 24012G20KT P6SM SCT120 BKN200
     FM170130 24007KT P6SM FEW250=



000
FTUS45 KFGZ 161100
TAFINW
TAF
KINW 161120Z 1612/1712 12006KT P6SM FEW250
     FM161900 30012G24KT P6SM BKN250
     FM170200 24008KT P6SM SCT250=



000
FTUS45 KFGZ 160500
TAFPGA
TAF
KPGA 160539Z 1606/1706 VRB05KT P6SM SCT250
     FM161800 33011KT P6SM FEW150 BKN250=



000
FTUS45 KFGZ 160500
TAFINW
TAF
KINW 160539Z 1606/1706 24009KT P6SM FEW250
     FM160900 12006KT P6SM FEW250
     FM161900 24012G24KT P6SM BKN250=



000
FTUS45 KFGZ 160500
TAFFLG
TAF
KFLG 160539Z 1606/1706 VRB05KT P6SM SKC
     FM161800 23012G20KT P6SM FEW120 BKN250
     FM170130 24007KT P6SM SCT250=



000
FTUS45 KFGZ 152300
TAFINW
TAF
KINW 152339Z 1600/1624 23010KT P6SM BKN200
     FM160300 24008KT P6SM SCT250
     FM160900 VRB05KT P6SM SCT250
     FM161900 26016G26KT P6SM FEW120 BKN200=



000
FTUS45 KFGZ 152300
TAFFLG
TAF
KFLG 152339Z 1600/1624 23012G20KT P6SM FEW140 BKN200
     FM160300 VRB03KT P6SM SCT250
     FM161800 24016G26KT P6SM SCT100 BKN200=



000
FTUS45 KFGZ 152300
TAFPGA
TAF
KPGA 152339Z 1600/1624 VRB06KT P6SM BKN250
     FM161800 33010G20KT P6SM SCT120 BKN200=



000
FTUS45 KFGZ 151700
TAFFLG
TAF
KFLG 151726Z 1518/1618 23012G20KT P6SM FEW120 BKN250
     FM160300 VRB03KT P6SM SCT250=



000
FTUS45 KFGZ 151700
TAFPGA
TAF
KPGA 151726Z 1518/1618 VRB06KT P6SM BKN250=



000
FTUS45 KFGZ 151700
TAFINW
TAF
KINW 151726Z 1518/1618 11006KT P6SM SCT250
     FM152000 23012G20KT P6SM BKN250
     FM160300 24008KT P6SM SCT250
     FM160900 VRB05KT P6SM SCT250=



000
FTUS45 KFGZ 151100
TAFINW
TAF
KINW 151123Z 1512/1612 VRB05KT P6SM SKC
     FM152000 23012G20KT P6SM SCT250
     FM160300 24008KT P6SM FEW250=



000
FTUS45 KFGZ 151100
TAFPGA
TAF
KPGA 151123Z 1512/1612 VRB06KT P6SM SCT250=



000
FTUS45 KFGZ 151100
TAFFLG
TAF
KFLG 151123Z 1512/1612 VRB03KT P6SM SKC
     FM151800 22012G20KT P6SM FEW120 SCT250
     FM160300 VRB03KT P6SM FEW250=



000
FTUS45 KFGZ 150500
TAFFLG
TAF
KFLG 150540Z 1506/1606 VRB03KT P6SM SKC
     FM151800 22012G20KT P6SM FEW120 BKN250=



000
FTUS45 KFGZ 150500
TAFINW
TAF
KINW 150540Z 1506/1606 27006KT P6SM SKC
     FM151200 13005KT P6SM SCT250
     FM152000 23012G20KT P6SM BKN250=



000
FTUS45 KFGZ 150500
TAFPGA
TAF
KPGA 150540Z 1506/1606 VRB03KT P6SM SKC
     FM151800 03006KT P6SM BKN250=



000
FTUS45 KFGZ 150000 AAA
TAFFLG
TAF AMD
KFLG 150004Z 1500/1524 09008KT P6SM SKC
     FM150300 VRB02KT P6SM FEW250
     FM151800 22012G20KT P6SM FEW140 BKN200=



000
FTUS45 KFGZ 142300
TAFPGA
TAF
KPGA 142332Z 1500/1524 04005KT P6SM SKC
     FM150400 VRB03KT P6SM FEW250
     FM151800 03006KT P6SM BKN200=



000
FTUS45 KFGZ 142300
TAFINW
TAF
KINW 142332Z 1500/1524 VRB04KT P6SM SKC
     FM150400 27006KT P6SM FEW250
     FM151200 13005KT P6SM SCT250
     FM152000 23012G20KT P6SM BKN200=



000
FTUS45 KFGZ 142300
TAFFLG
TAF
KFLG 142332Z 1500/1524 06011G18KT P6SM SKC
     FM150300 VRB04KT P6SM FEW250
     FM151800 22012G20KT P6SM FEW140 BKN200=



000
FTUS45 KFGZ 141700
TAFINW
TAF
KINW 141731Z 1418/1518 01012G22KT P6SM SKC
     FM150600 27006KT P6SM SCT250
     FM151200 13005KT P6SM SCT250=



000
FTUS45 KFGZ 141700
TAFFLG
TAF
KFLG 141731Z 1418/1518 06018G28KT P6SM SKC
     FM142100 06010G18KT P6SM SKC
     FM150300 VRB04KT P6SM SCT250=



000
FTUS45 KFGZ 141700
TAFPGA
TAF
KPGA 141731Z 1418/1518 04010G16KT P6SM SKC
     FM150400 VRB03KT P6SM SCT250=



000
FTUS45 KFGZ 141500 AAA
TAFPGA
TAF AMD
KPGA 141507Z 1415/1512 04010G17KT P6SM SKC
     FM150400 VRB03KT P6SM SKC=



000
FTUS45 KFGZ 141100
TAFFLG
TAF
KFLG 141120Z 1412/1512 06018G26KT P6SM SKC
     FM142000 06010G16KT P6SM SKC
     FM150300 VRB04KT P6SM SKC=



000
FTUS45 KFGZ 141100
TAFPGA
TAF
KPGA 141120Z 1412/1512 VRB06KT P6SM SKC
     FM141700 02010G17KT P6SM SKC
     FM150400 VRB03KT P6SM SKC=



000
FTUS45 KFGZ 141100
TAFINW
TAF
KINW 141120Z 1412/1512 30009KT P6SM SKC
     FM141700 36012G22KT P6SM SKC
     FM150600 VRB03KT P6SM SKC=



000
FTUS45 KFGZ 140900 AAB
TAFFLG
TAF AMD
KFLG 140911Z 1409/1506 04015G25KT P6SM SKC
     FM141500 05018G28KT P6SM SKC
     FM142000 06010G16KT P6SM SKC=



000
FTUS45 KFGZ 140700 AAA
TAFPGA
TAF AMD
KPGA 140756Z 1408/1506 VRB06KT P6SM SKC
     FM141700 02010G17KT P6SM SKC=



000
FTUS45 KFGZ 140600 AAA
TAFFLG
TAF AMD
KFLG 140630Z 1406/1506 04008KT P6SM SKC
     FM141000 04010G17KT P6SM SKC
     FM141500 05018G28KT P6SM SKC
     FM142000 06010G16KT P6SM SKC=



000
FTUS45 KFGZ 140500
TAFPGA
TAF
KPGA 140525Z 1406/1506 33012G20KT P6SM SKC
     FM141100 VRB06KT P6SM SKC
     FM141700 02010G17KT P6SM SKC=



000
FTUS45 KFGZ 140500
TAFINW
TAF
KINW 140525Z 1406/1506 33010G17KT P6SM SKC
     FM141100 33009KT P6SM SKC
     FM141700 36012G22KT P6SM SKC=



000
FTUS45 KFGZ 140500
TAFFLG
TAF
KFLG 140525Z 1406/1506 36012KT P6SM SKC
     FM141000 04010G17KT P6SM SKC
     FM141500 05018G28KT P6SM SKC
     FM142000 06010G16KT P6SM SKC=



    US Dept of Commerce
    National Oceanic and Atmospheric Administration
    National Weather Service
    1325 East West Highway
    Silver Spring, MD 20910
    Page Author: NWS Internet Services Team
Disclaimer
Information Quality
Credits
Glossary
Privacy Policy
Freedom of Information Act (FOIA)
About Us
Career Opportunities